San Diego, California
Current Conditions -  °F | °C
As of 10:35 PM on Friday 19 Dec 2014 (Local Time) from KSAN Reporting Station
Broken Clouds Broken Clouds  
Wind Chill: 15°   Ceiling: 2400
Heat Index: 15°   Visibility: 10mi
Dew Point: 11°   Wind: 3mph
Humidity: 77%   Direction: NA
Pressure: 30.19"   Gusts: NA
Location:  32.72°N, 117.16°W
Report Text: KSAN 200635Z VRB03KT 10SM BKN024 15/11 A3019 RMK AO2
Loading
Personal Weather Stations






























Interactive Weather Map New forecast layout! Learn more

10-Day Weather Forecast

Advertisements
Track Severe Weather on mobile